Flight Track Log - Related Links

Times and Time Zones

All times are in EDT time to prevent confusion due to time zone crossing. See the EGF4039 flight status page for this flight to view local times or setup timezone preferences in your user account.

Time Position Orientation Groundspeed Altitude Reporting Facility
EDT Latitude Longitude Course Direction KTS MPH feet Rate Location/Type
Mon 05:00:07 PM 42.5972 -92.4572 97° East 180 207 4,800  Level Chicago Center
Mon 05:01:09 PM 42.6389 -92.4036 43° Northeast 264 304 7,400 2,419 Climbing Chicago Center
Mon 05:02:11 PM 42.6297 -92.2983 97° East 275 316 9,800 1,694 Climbing Chicago Center
Mon 05:03:00 PM 42.4867 -91.7202 97° East  Level FlightAware Approximate
Mon 05:03:13 PM 42.6097 -92.1706 102° East 321 369 10,900  Level Chicago Center
Mon 05:04:00 PM 42.4786 -91.5837 97° East  Level FlightAware Approximate
Mon 05:04:15 PM 42.5911 -92.0261 100° East 369 425 12,500  Level Chicago Center
Mon 05:05:00 PM 42.4667 -91.4590 97° East  Level FlightAware Approximate
Mon 05:05:17 PM 42.5672 -91.8486 100° East 398 458 14,700  Level Chicago Center
Mon 05:06:20 PM 42.5453 -91.7008 101° East 408 470 16,100 1,392 Climbing Chicago Center
Mon 05:07:22 PM 42.5236 -91.5469 101° East 423 487 17,600 1,403 Climbing Chicago Center
Mon 05:08:24 PM 42.4969 -91.3564 101° East 437 503 19,000 1,548 Climbing Chicago Center
Mon 05:09:26 PM 42.4722 -91.1975 102° East 438 504 20,800 1,839 Climbing Chicago Center
Mon 05:10:28 PM 42.4503 -91.0442 101° East 423 487 22,800 1,065 Climbing Chicago Center
Mon 05:11:30 PM 42.4250 -90.8839 102° East 435 501 23,000 97 Climbing Chicago Center
Mon 05:12:32 PM 42.4025 -90.7264 101° East 434 499 23,000  Level Chicago Center
Mon 05:13:34 PM 42.4153 -90.5453 84° East 411 473 23,000  Level Chicago Center
Mon 05:14:36 PM 42.4319 -90.3867 82° East 426 490 23,000  Level Chicago Center
Mon 05:15:38 PM 42.4503 -90.2306 81° East 425 489 23,000  Level Chicago Center
Mon 05:16:40 PM 42.4653 -90.0744 83° East 422 486 23,000 -672 Level Chicago Center
Mon 05:17:43 PM 42.4814 -89.9089 82° East 415 478 21,600 -1,403 Descending Chicago Center
Mon 05:18:44 PM 42.4961 -89.7556 83° East 412 474 20,100 -1,548 Descending Chicago Center
Mon 05:19:47 PM 42.5125 -89.5789 83° East 407 468 18,400 -1,536 Descending Chicago Center
Mon 05:20:49 PM 42.4944 -89.4233 99° East 428 493 16,900 -1,452 Descending Chicago Center
Mon 05:21:51 PM 42.4728 -89.2664 101° East 425 489 15,400 -1,403 Descending Chicago Center
Mon 05:22:53 PM 42.4528 -89.1119 100° East 420 483 14,000 -1,258 Descending Chicago Center
Mon 05:23:55 PM 42.4347 -88.9608 99° East 410 472 12,800 -1,113 Descending Chicago Center
Mon 05:24:57 PM 42.4119 -88.7928 100° East 395 455 11,700 -1,016 Descending Chicago Center
Mon 05:25:59 PM 42.3939 -88.6500 100° East 389 448 10,700 -774 Descending Chicago Center
Mon 05:27:01 PM 42.3753 -88.5153 101° East 375 432 10,100 -339 Descending Chicago Center
Mon 05:28:03 PM 42.3408 -88.3897 110° East 362 417 10,000 -48 Descending Chicago Center
Mon 05:29:05 PM 42.2756 -88.2781 128° Southeast 341 392 10,000  Level Chicago Center
Mon 05:30:07 PM 42.2169 -88.1858 131° Southeast 328 377 10,000  Level Chicago Center
Mon 05:31:09 PM 42.1536 -88.0964 134° Southeast 332 382 10,000 -145 Level Chicago Center
Mon 05:32:11 PM 42.0947 -88.0208 136° Southeast 298 343 9,700 -968 Descending Chicago Center
Mon 05:33:13 PM 42.0883 -87.9133 95° East 287 330 8,000 -1,790 Descending Chicago Center
Mon 05:34:15 PM 42.0906 -87.7831 89° East 291 335 6,000 -1,680 Descending Chicago Center
Mon 05:35:18 PM 42.0833 -87.6667 95° East 274 315 4,500 -930 Descending Chicago TRACON
Mon 05:36:24 PM 42.0833 -87.5667 90° East 277 319 4,000 -238 Descending Chicago TRACON
Mon 05:37:24 PM 42.0833 -87.4667 90° East 247 284 4,000  Level Chicago TRACON
Mon 05:38:24 PM 42.0333 -87.4167 143° Southeast 237 273 4,000  Level Chicago TRACON
Mon 05:39:24 PM 42.0000 -87.4500 217° Southwest 207 238 4,000  Level Chicago TRACON
Mon 05:40:24 PM 42.0000 -87.5333 270° West 212 244 4,000  Level Chicago TRACON
Mon 05:41:24 PM 42.0000 -87.6167 270° West 233 268 4,000 -200 Level Chicago TRACON
Mon 05:42:24 PM 42.0000 -87.7000 270° West 229 264 3,600 -800 Descending Chicago TRACON
Mon 05:43:24 PM 42.0000 -87.7833 270° West 219 252 2,400 -1,200 Descending Chicago TRACON

Login

Don't have an account? Register now (free) for customized features, flight alerts, and more!